Fancher, New York
Current Conditions -  °F | °C
As of 6:54 PM on Saturday 22 Nov 2014 (Local Time) from KROC Reporting Station
Overcast Overcast  
Wind Chill: 34°   Ceiling: 2100
Heat Index: 42°   Visibility: 10mi
Dew Point: 39°   Wind: 17mph
Humidity: 89%   Direction: 230°SW
Pressure: 29.97"   Gusts: NA
Location:  43.24°N, 78.09°W
Report Text: KROC 222354Z 23015KT 10SM OVC021 06/04 A2997 RMK AO2 SLP156 60000 T00560039 10056 20033 58005
Loading
Personal Weather Stations






























Interactive Weather Map New forecast layout! Learn more

10-Day Weather Forecast

Advertisements
Track Severe Weather on mobile